Time;durP1;ratioP1;P1;durP2;ratioP2;P2;SDS_P1;SDS_P2;PMS_P1;PMS_P2;Temp;Humidity;BMP_temperature;BMP_pressure;BME280_temperature;BME280_humidity;BME280_pressure;Samples;Min_cycle;Max_cycle;Signal;HPM_P1;HPM_P2
2021/04/29 00:02:04;;;;;;;4.57;1.60;;;;;;;20.28;31.06;99862.97;5042743;28;20163;-61
2021/04/29 00:04:29;;;;;;;3.63;1.63;;;;;;;20.24;30.41;99862.34;5037802;28;20672;-61
2021/04/29 00:06:54;;;;;;;3.65;1.90;;;;;;;20.24;30.67;99864.19;5030342;28;20033;-61
2021/04/29 00:09:20;;;;;;;4.63;1.77;;;;;;;20.23;30.87;99857.94;5034222;28;20033;-61
2021/04/29 00:11:45;;;;;;;3.53;1.50;;;;;;;20.22;30.86;99866.16;5038735;28;20467;-61
2021/04/29 00:14:11;;;;;;;3.70;1.60;;;;;;;20.22;30.55;99861.63;5041774;28;20032;-61
2021/04/29 00:16:37;;;;;;;4.03;1.90;;;;;;;20.22;30.46;99866.16;5038437;28;20039;-61
2021/04/29 00:19:02;;;;;;;3.60;1.60;;;;;;;20.21;30.32;99856.34;5041872;28;20013;-61
2021/04/29 00:21:28;;;;;;;3.55;1.90;;;;;;;20.21;30.59;99861.75;5004829;28;20029;-61
2021/04/29 00:23:53;;;;;;;3.35;1.45;;;;;;;20.22;30.80;99861.63;5036806;28;20433;-61
2021/04/29 00:26:18;;;;;;;3.35;1.65;;;;;;;20.20;30.75;99866.28;5025569;28;20035;-61
2021/04/29 00:28:44;;;;;;;3.17;1.48;;;;;;;20.19;30.81;99863.69;5012872;28;20045;-60
2021/04/29 00:31:09;;;;;;;3.85;1.58;;;;;;;20.18;30.81;99867.41;5042877;28;20051;-61
2021/04/29 00:33:35;;;;;;;5.57;1.90;;;;;;;20.16;30.85;99875.59;5039884;28;20024;-62
2021/04/29 00:36:01;;;;;;;3.00;1.30;;;;;;;20.16;30.70;99879.16;5042290;28;20108;-62
2021/04/29 00:38:29;;;;;;;3.17;1.63;;;;;;;20.15;30.98;99877.47;5045658;28;20029;-62
2021/04/29 00:40:55;;;;;;;4.90;1.90;;;;;;;20.13;30.61;99876.72;5019572;28;20025;-62
2021/04/29 00:43:20;;;;;;;3.53;1.88;;;;;;;20.14;30.70;99870.31;5014649;28;20106;-62
2021/04/29 00:45:46;;;;;;;4.68;1.80;;;;;;;20.13;30.86;99879.41;5021211;28;20186;-61
2021/04/29 00:48:11;;;;;;;4.30;1.80;;;;;;;20.13;30.78;99882.13;5049771;28;20048;-61
2021/04/29 00:50:36;;;;;;;3.13;1.70;;;;;;;20.12;30.69;99874.13;5039592;28;20488;-61
2021/04/29 00:53:02;;;;;;;3.88;1.65;;;;;;;20.11;30.68;99877.81;5041724;28;20024;-60
2021/04/29 00:55:27;;;;;;;4.85;1.88;;;;;;;20.10;31.10;99876.09;5033670;28;20074;-60
2021/04/29 00:57:52;;;;;;;3.35;1.35;;;;;;;20.09;30.99;99875.22;5038860;28;20017;-61
2021/04/29 01:00:18;;;;;;;3.67;1.70;;;;;;;20.09;30.95;99877.06;5045904;28;20062;-61
2021/04/29 01:02:52;;;;;;;4.38;1.80;;;;;;;20.06;30.67;99878.19;5046250;28;20032;-61
2021/04/29 01:05:25;;;;;;;5.35;1.90;;;;;;;20.07;30.81;99874.50;4999961;28;20112;-60
2021/04/29 01:07:53;;;;;;;5.53;1.73;;;;;;;20.07;31.07;99873.66;5014118;28;20454;-60
2021/04/29 01:10:31;;;;;;;3.25;1.67;;;;;;;20.05;31.12;99881.81;5038881;28;20622;-61
2021/04/29 01:13:09;;;;;;;3.47;1.90;;;;;;;20.04;30.86;99878.28;5035167;28;20021;-61
2021/04/29 01:15:36;;;;;;;3.65;1.88;;;;;;;20.02;30.68;99871.28;5042487;28;20505;-61
2021/04/29 01:18:01;;;;;;;3.50;1.73;;;;;;;20.04;30.39;99874.72;5004017;28;20140;-60
2021/04/29 01:20:38;;;;;;;3.60;1.73;;;;;;;20.03;30.89;99873.84;5035723;28;20092;-60
2021/04/29 01:23:03;;;;;;;3.40;1.75;;;;;;;20.01;31.07;99877.66;5050112;28;20456;-60
2021/04/29 01:25:28;;;;;;;3.43;1.70;;;;;;;20.02;31.20;99876.66;5043379;28;20032;-60
2021/04/29 01:27:54;;;;;;;2.78;1.52;;;;;;;20.01;30.98;99883.06;5036429;28;20166;-61
2021/04/29 01:30:20;;;;;;;3.78;1.70;;;;;;;20.00;31.07;99882.19;5021596;28;20070;-61
2021/04/29 01:32:45;;;;;;;4.28;1.77;;;;;;;20.01;31.22;99893.84;5019747;28;20047;-60
2021/04/29 01:35:11;;;;;;;3.33;1.75;;;;;;;19.99;30.97;99902.09;5006875;28;20061;-60
2021/04/29 01:37:36;;;;;;;3.55;1.77;;;;;;;19.98;30.86;99897.66;5007752;28;20187;-60
2021/04/29 01:40:02;;;;;;;4.78;1.67;;;;;;;19.97;31.27;99895.06;5017585;28;20090;-61
2021/04/29 01:42:28;;;;;;;5.53;1.85;;;;;;;19.96;30.83;99896.91;5034191;28;20039;-61
2021/04/29 01:44:53;;;;;;;4.03;1.83;;;;;;;19.95;31.39;99897.03;5018705;28;20101;-61
2021/04/29 01:47:18;;;;;;;3.25;1.77;;;;;;;19.95;31.21;99886.25;5036952;28;20033;-60
2021/04/29 01:49:44;;;;;;;5.85;1.80;;;;;;;19.95;31.09;99888.94;5011470;28;20079;-60
2021/04/29 01:52:10;;;;;;;4.90;2.00;;;;;;;19.94;31.13;99889.94;5043113;28;20044;-61
2021/04/29 01:54:37;;;;;;;4.00;2.08;;;;;;;19.94;31.48;99892.63;4999068;28;20130;-61
2021/04/29 01:57:03;;;;;;;4.75;1.92;;;;;;;19.92;31.28;99899.00;5025118;28;20420;-60
2021/04/29 01:59:28;;;;;;;4.38;2.00;;;;;;;19.93;31.38;99905.25;5037917;28;20022;-62
2021/04/29 02:01:54;;;;;;;3.80;2.10;;;;;;;19.94;31.18;99909.66;5020300;28;20397;-61
2021/04/29 02:04:19;;;;;;;2.90;1.70;;;;;;;19.93;31.33;99910.66;5044487;28;20036;-61
2021/04/29 02:06:45;;;;;;;3.83;1.60;;;;;;;19.92;31.10;99912.47;5035842;28;20067;-60
2021/04/29 02:09:10;;;;;;;3.92;1.90;;;;;;;19.89;30.97;99915.44;5030471;28;20548;-61
2021/04/29 02:11:40;;;;;;;3.97;1.85;;;;;;;19.89;31.09;99911.88;5044322;28;20094;-60
2021/04/29 02:14:06;;;;;;;4.10;1.90;;;;;;;19.91;31.10;99913.47;5011488;28;20536;-60
2021/04/29 02:16:44;;;;;;;4.38;1.90;;;;;;;19.92;31.39;99909.78;5028054;28;20090;-60
2021/04/29 02:19:09;;;;;;;4.43;1.98;;;;;;;19.90;31.48;99911.75;5042346;28;20017;-61
2021/04/29 02:21:37;;;;;;;5.43;2.25;;;;;;;19.89;31.25;99912.72;5033584;28;20381;-60
2021/04/29 02:24:02;;;;;;;4.78;1.90;;;;;;;19.87;31.23;99913.81;5010437;28;20482;-60
2021/04/29 02:26:28;;;;;;;3.67;1.80;;;;;;;19.88;31.62;99907.47;5022325;28;20138;-60
2021/04/29 02:28:53;;;;;;;4.30;1.92;;;;;;;19.87;31.18;99903.03;5003942;28;20089;-60
2021/04/29 02:31:18;;;;;;;3.10;1.70;;;;;;;19.86;31.47;99898.63;5042948;28;20029;-60
2021/04/29 02:33:44;;;;;;;3.22;1.50;;;;;;;19.85;31.50;99891.50;5019468;28;20017;-60
2021/04/29 02:36:09;;;;;;;4.18;1.90;;;;;;;19.85;31.12;99878.88;5022725;28;20119;-60
2021/04/29 02:38:35;;;;;;;5.28;2.22;;;;;;;19.84;31.42;99879.00;5043744;28;20018;-60
2021/04/29 02:41:00;;;;;;;4.03;2.00;;;;;;;19.83;31.08;99878.13;5014466;28;20085;-61
2021/04/29 02:43:26;;;;;;;4.50;2.00;;;;;;;19.87;31.23;99882.31;5054426;23;20147;-55
2021/04/29 02:45:51;;;;;;;4.32;1.92;;;;;;;19.83;31.32;99875.44;5058891;28;20070;-55
2021/04/29 02:48:19;;;;;;;4.43;2.00;;;;;;;19.83;31.34;99866.50;5069786;28;20024;-55
2021/04/29 02:50:44;;;;;;;4.45;2.10;;;;;;;19.84;31.25;99870.91;5037995;28;20051;-55
2021/04/29 02:53:16;;;;;;;4.43;2.13;;;;;;;19.81;31.47;99874.69;5066111;28;20482;-54
2021/04/29 02:55:42;;;;;;;5.07;1.98;;;;;;;19.85;31.14;99878.88;5062152;28;20044;-55
2021/04/29 02:58:09;;;;;;;4.47;1.80;;;;;;;19.83;31.13;99883.53;5070028;28;20394;-54
2021/04/29 03:00:35;;;;;;;3.17;1.85;;;;;;;19.79;31.12;99880.19;5068819;28;20101;-55
2021/04/29 03:03:00;;;;;;;4.82;1.80;;;;;;;19.81;31.47;99893.56;5072014;28;20626;-55
2021/04/29 03:05:26;;;;;;;3.70;1.90;;;;;;;19.80;31.03;99887.34;5067256;28;20028;-55
2021/04/29 03:07:51;;;;;;;4.18;1.90;;;;;;;19.80;31.26;99894.56;5066900;28;20025;-55
2021/04/29 03:10:17;;;;;;;4.45;1.83;;;;;;;19.78;31.35;99897.38;5039952;28;20499;-54
2021/04/29 03:12:42;;;;;;;5.05;2.00;;;;;;;19.76;31.13;99896.63;5067238;28;20046;-55
2021/04/29 03:15:08;;;;;;;4.63;2.15;;;;;;;19.76;31.62;99903.88;5063893;28;20024;-54
2021/04/29 03:17:34;;;;;;;4.03;1.77;;;;;;;19.78;31.58;99902.78;5043104;28;20016;-54
2021/04/29 03:19:59;;;;;;;5.45;2.00;;;;;;;19.76;31.64;99909.25;5062185;28;20055;-54
2021/04/29 03:22:24;;;;;;;3.65;1.60;;;;;;;19.75;31.58;99903.03;5058897;28;20020;-55
2021/04/29 03:24:50;;;;;;;3.30;1.75;;;;;;;19.77;31.27;99908.31;5058778;28;20077;-54
2021/04/29 03:27:16;;;;;;;3.50;1.67;;;;;;;19.75;31.66;99910.25;5058907;28;20428;-55
2021/04/29 03:29:41;;;;;;;3.85;1.90;;;;;;;19.73;31.53;99907.69;5058667;28;20504;-55
2021/04/29 03:32:06;;;;;;;3.28;1.67;;;;;;;19.73;31.43;99909.50;5052940;28;20033;-56
2021/04/29 03:34:32;;;;;;;4.25;1.83;;;;;;;19.72;31.66;99905.94;5053610;28;20032;-54
2021/04/29 03:36:57;;;;;;;3.45;1.92;;;;;;;19.69;31.35;99898.09;5067529;28;20069;-55
2021/04/29 03:39:22;;;;;;;3.45;1.67;;;;;;;19.70;31.49;99897.09;5065098;28;20036;-54
2021/04/29 03:41:48;;;;;;;4.10;2.00;;;;;;;19.68;31.59;99899.09;5061182;28;20556;-54
2021/04/29 03:44:13;;;;;;;4.88;1.98;;;;;;;19.71;31.32;99909.63;5066372;28;20024;-55
2021/04/29 03:46:38;;;;;;;4.40;2.00;;;;;;;19.72;31.35;99910.50;5067320;28;20032;-55
2021/04/29 03:49:04;;;;;;;3.50;1.90;;;;;;;19.71;31.76;99897.97;5065158;28;20027;-54
2021/04/29 03:51:29;;;;;;;5.07;2.00;;;;;;;19.68;31.49;99901.78;5066036;28;20047;-55
2021/04/29 03:53:55;;;;;;;4.05;1.80;;;;;;;19.56;31.63;99890.09;5060442;28;20047;-54
2021/04/29 03:56:20;;;;;;;5.00;2.40;;;;;;;19.64;31.54;99909.25;5062177;28;20021;-55
2021/04/29 03:58:45;;;;;;;3.28;1.80;;;;;;;19.63;31.59;99910.22;5066467;28;20020;-55
2021/04/29 04:01:11;;;;;;;4.72;2.08;;;;;;;19.62;31.63;99908.50;5060265;28;20429;-55
2021/04/29 04:03:36;;;;;;;4.95;2.17;;;;;;;19.63;31.99;99912.91;5065185;28;20058;-54
2021/04/29 04:06:01;;;;;;;4.38;2.20;;;;;;;19.63;31.58;99910.22;5067198;28;20021;-54
2021/04/29 04:08:27;;;;;;;6.57;2.05;;;;;;;19.61;31.79;99922.97;5064597;28;20013;-55
2021/04/29 04:10:52;;;;;;;3.63;1.60;;;;;;;19.63;32.12;99920.13;5066368;28;20110;-56
2021/04/29 04:13:21;;;;;;;4.90;1.88;;;;;;;19.67;31.92;99918.94;5062266;28;20021;-56
2021/04/29 04:15:47;;;;;;;4.18;1.88;;;;;;;19.73;31.66;99923.00;5062192;28;20024;-54
2021/04/29 04:18:12;;;;;;;4.18;1.85;;;;;;;19.77;31.54;99932.59;5057320;28;20656;-53
2021/04/29 04:20:38;;;;;;;4.47;1.92;;;;;;;19.79;31.96;99938.72;5064923;28;20048;-53
2021/04/29 04:23:04;;;;;;;4.82;1.80;;;;;;;19.78;31.93;99943.25;5065626;28;20043;-53
2021/04/29 04:25:29;;;;;;;3.85;1.80;;;;;;;19.78;31.46;99934.28;5064192;28;20028;-53
2021/04/29 04:27:54;;;;;;;6.22;2.28;;;;;;;19.76;31.92;99941.63;5061460;28;20017;-53
2021/04/29 04:30:20;;;;;;;5.78;2.30;;;;;;;19.75;31.88;99940.81;5066043;28;20383;-52
2021/04/29 04:32:45;;;;;;;4.40;2.15;;;;;;;19.77;31.72;99956.88;5066792;28;20027;-52
2021/04/29 04:35:11;;;;;;;5.20;2.22;;;;;;;19.74;31.85;99970.56;5065684;28;20024;-57
2021/04/29 04:37:37;;;;;;;6.45;2.50;;;;;;;19.71;31.89;99985.19;5061545;28;20035;-56
2021/04/29 04:40:03;;;;;;;9.60;2.75;;;;;;;19.73;31.81;99983.22;5065507;28;20468;-57
2021/04/29 04:42:28;;;;;;;6.50;2.78;;;;;;;19.72;31.83;99986.03;5067212;28;20131;-56
2021/04/29 04:44:54;;;;;;;5.90;2.58;;;;;;;19.65;31.91;99994.59;5066619;28;20028;-58
2021/04/29 04:47:19;;;;;;;6.43;3.00;;;;;;;19.66;31.65;99999.00;5063813;28;20173;-56
2021/04/29 04:49:45;;;;;;;6.68;3.17;;;;;;;19.67;31.78;99997.16;5066444;28;20082;-56
2021/04/29 04:52:10;;;;;;;7.05;2.95;;;;;;;19.64;32.20;99994.72;5066827;28;20032;-57
2021/04/29 04:54:36;;;;;;;6.35;3.20;;;;;;;19.53;31.76;99993.66;5065158;28;20437;-57
2021/04/29 04:57:01;;;;;;;7.82;3.22;;;;;;;19.56;32.16;100006.06;5064734;28;20288;-55
2021/04/29 04:59:27;;;;;;;11.80;3.33;;;;;;;19.54;32.43;100003.50;5064977;28;20024;-57
2021/04/29 05:01:52;;;;;;;11.18;4.85;;;;;;;19.17;32.75;100011.63;5066813;28;20042;-58
2021/04/29 05:04:18;;;;;;;12.43;5.47;;;;;;;19.01;34.19;100015.44;5046866;28;20050;-57
2021/04/29 05:06:43;;;;;;;12.70;6.35;;;;;;;18.62;35.59;100012.81;5060058;28;20478;-52
2021/04/29 05:09:08;;;;;;;12.75;6.22;;;;;;;18.65;34.17;100015.28;5065244;28;20024;-55
2021/04/29 05:11:34;;;;;;;10.85;5.03;;;;;;;18.91;34.25;100017.91;5066907;28;20430;-56
2021/04/29 05:13:59;;;;;;;11.85;4.20;;;;;;;19.12;33.87;100013.78;5065641;28;20032;-54
2021/04/29 05:16:25;;;;;;;9.90;4.40;;;;;;;19.22;36.55;100017.53;5064736;28;20082;-54
2021/04/29 05:18:50;;;;;;;14.23;4.40;;;;;;;19.28;33.54;100014.41;5065627;28;20021;-54
2021/04/29 05:21:15;;;;;;;12.93;4.80;;;;;;;19.40;33.44;100020.72;5062053;28;20491;-54
2021/04/29 05:23:41;;;;;;;12.02;5.97;;;;;;;18.47;35.50;100029.09;5057112;28;20045;-54
2021/04/29 05:26:06;;;;;;;13.05;5.97;;;;;;;18.45;36.26;100020.25;5061446;28;20039;-55
2021/04/29 05:28:31;;;;;;;11.65;5.32;;;;;;;18.82;34.49;100026.66;5065271;28;20024;-53
2021/04/29 05:30:57;;;;;;;10.35;4.82;;;;;;;19.07;34.00;100028.44;5067641;28;20468;-52
2021/04/29 05:33:22;;;;;;;9.48;4.95;;;;;;;19.11;33.72;100026.38;5066813;28;20059;-53
2021/04/29 05:35:47;;;;;;;12.30;4.80;;;;;;;19.22;35.50;100031.00;5065675;28;20025;-55
2021/04/29 05:38:13;;;;;;;14.15;4.90;;;;;;;19.26;33.69;100021.75;5065151;28;20105;-55
2021/04/29 05:40:39;;;;;;;8.35;4.45;;;;;;;19.30;34.31;100035.84;5072296;28;20079;-59
2021/04/29 05:43:05;;;;;;;11.70;4.63;;;;;;;19.31;34.48;100024.09;5075434;28;20644;-58
2021/04/29 05:45:30;;;;;;;16.60;5.32;;;;;;;19.32;34.20;100029.38;5068507;28;20089;-57
2021/04/29 05:47:55;;;;;;;9.73;4.65;;;;;;;19.30;33.63;100028.63;5050049;28;20032;-57
2021/04/29 05:50:21;;;;;;;15.43;4.50;;;;;;;19.33;34.09;100024.88;5069408;28;20380;-55
2021/04/29 05:52:46;;;;;;;14.15;4.78;;;;;;;19.40;34.06;100018.03;5067479;28;20024;-56
2021/04/29 05:55:12;;;;;;;11.55;5.05;;;;;;;19.37;34.13;100015.53;5068720;28;20020;-55
2021/04/29 05:57:37;;;;;;;14.43;5.38;;;;;;;19.42;33.91;100015.22;5069155;28;20048;-54
2021/04/29 06:00:05;;;;;;;11.18;4.97;;;;;;;19.45;34.82;100017.69;5068108;28;20116;-56
2021/04/29 06:02:30;;;;;;;14.95;5.68;;;;;;;19.49;35.29;100018.31;5067756;28;20032;-55
2021/04/29 06:04:55;;;;;;;13.93;4.80;;;;;;;19.43;34.52;100023.19;5062719;28;20529;-55
2021/04/29 06:07:21;;;;;;;12.90;5.57;;;;;;;19.35;34.87;100013.97;5061844;28;20333;-56
2021/04/29 06:09:46;;;;;;;10.85;5.20;;;;;;;19.35;34.82;100006.69;5069388;28;20127;-56
2021/04/29 06:12:12;;;;;;;16.25;5.00;;;;;;;19.34;35.03;100015.78;5068941;28;20040;-55
2021/04/29 06:14:37;;;;;;;12.55;5.22;;;;;;;19.38;34.68;100016.41;5067063;28;20039;-56
2021/04/29 06:17:02;;;;;;;18.52;6.18;;;;;;;19.38;35.41;100019.13;5060725;28;20029;-55
2021/04/29 06:19:28;;;;;;;11.52;6.35;;;;;;;19.34;34.93;100018.47;5063875;28;20369;-55
2021/04/29 06:21:53;;;;;;;14.55;7.20;;;;;;;19.29;35.41;100018.81;5056787;28;20032;-55
2021/04/29 06:24:19;;;;;;;11.73;7.43;;;;;;;19.25;35.77;100019.16;5064385;28;20598;-55
2021/04/29 06:26:44;;;;;;;13.75;7.30;;;;;;;19.26;35.30;100023.56;5065073;28;20070;-56
2021/04/29 06:29:09;;;;;;;14.95;8.07;;;;;;;19.20;35.53;100028.44;5074102;28;20020;-56
2021/04/29 06:31:37;;;;;;;14.30;7.50;;;;;;;19.22;35.64;100030.19;5067773;28;20028;-55
2021/04/29 06:34:05;;;;;;;13.75;8.05;;;;;;;19.26;35.42;100031.66;5061600;28;20103;-56
2021/04/29 06:36:31;;;;;;;16.05;7.72;;;;;;;19.26;35.62;100029.81;5064335;28;20376;-55
2021/04/29 06:38:57;;;;;;;15.07;7.80;;;;;;;19.20;35.88;100033.00;5063680;28;20138;-56
2021/04/29 06:41:22;;;;;;;13.57;8.38;;;;;;;19.18;35.94;100032.25;5077309;28;20390;-56
2021/04/29 06:43:48;;;;;;;18.25;9.00;;;;;;;19.21;35.89;100034.69;5062112;28;20438;-56
2021/04/29 06:46:13;;;;;;;16.88;10.05;;;;;;;19.26;36.13;100035.22;5062192;28;20024;-56
2021/04/29 06:48:40;;;;;;;16.73;8.70;;;;;;;19.21;35.74;100045.47;5064873;28;20422;-55
2021/04/29 06:51:06;;;;;;;14.07;8.50;;;;;;;19.19;36.24;100040.22;5067381;28;20210;-56
2021/04/29 06:53:31;;;;;;;14.43;8.68;;;;;;;19.22;35.98;100038.25;5065898;28;20033;-56
2021/04/29 06:55:57;;;;;;;15.25;8.18;;;;;;;19.23;36.04;100046.25;5048822;28;20560;-56
2021/04/29 06:58:23;;;;;;;14.90;8.20;;;;;;;19.19;35.97;100050.13;5063776;28;20197;-55
2021/04/29 07:00:49;;;;;;;17.52;8.55;;;;;;;19.19;36.23;100044.72;5066283;28;20484;-55
2021/04/29 07:03:14;;;;;;;14.55;8.98;;;;;;;19.14;36.27;100045.09;5046858;28;20020;-57
2021/04/29 07:05:39;;;;;;;14.35;8.55;;;;;;;19.14;36.42;100050.47;5058693;28;20109;-56
2021/04/29 07:08:06;;;;;;;12.13;8.38;;;;;;;19.13;36.27;100048.72;5061473;28;20039;-56
2021/04/29 07:10:31;;;;;;;18.17;10.07;;;;;;;19.14;35.96;100044.22;5066036;28;20086;-56
2021/04/29 07:12:56;;;;;;;14.40;9.05;;;;;;;19.19;36.16;100048.28;5066555;28;20036;-56
2021/04/29 07:15:22;;;;;;;15.82;9.57;;;;;;;19.25;35.91;100054.22;5063451;28;20034;-56
2021/04/29 07:17:47;;;;;;;14.05;9.10;;;;;;;19.20;36.00;100055.41;5059368;28;20631;-56
2021/04/29 07:20:13;;;;;;;16.95;9.68;;;;;;;19.22;35.97;100060.66;5066372;28;20020;-56
2021/04/29 07:22:38;;;;;;;13.93;8.88;;;;;;;19.21;35.94;100061.66;5065745;28;20476;-55
2021/04/29 07:25:04;;;;;;;15.90;9.23;;;;;;;19.23;36.10;100072.31;5062522;28;20032;-57
2021/04/29 07:27:30;;;;;;;15.48;9.45;;;;;;;19.23;36.16;100075.91;5063257;28;20028;-56
2021/04/29 07:29:55;;;;;;;14.00;8.82;;;;;;;19.21;36.21;100080.53;5071673;28;20032;-56
2021/04/29 07:32:20;;;;;;;16.98;9.30;;;;;;;19.24;35.92;100074.06;5061324;28;20540;-56
2021/04/29 07:34:46;;;;;;;13.52;9.25;;;;;;;19.25;35.80;100073.06;5059569;28;20036;-56
2021/04/29 07:37:11;;;;;;;14.20;9.23;;;;;;;19.24;36.12;100077.59;5059093;28;20063;-56
2021/04/29 07:39:36;;;;;;;14.02;9.05;;;;;;;19.23;36.12;100085.81;5062570;28;20036;-55
2021/04/29 07:42:02;;;;;;;14.70;8.82;;;;;;;19.22;36.27;100081.41;5063139;28;20021;-56
2021/04/29 07:44:27;;;;;;;15.82;10.20;;;;;;;19.19;36.38;100074.38;5063869;28;20020;-55
2021/04/29 07:46:52;;;;;;;14.23;9.50;;;;;;;19.22;36.15;100074.16;5064892;28;20029;-56
2021/04/29 07:49:18;;;;;;;11.35;8.50;;;;;;;19.22;36.03;100071.44;5064108;28;20172;-56
2021/04/29 07:51:43;;;;;;;14.23;8.93;;;;;;;19.24;36.16;100066.81;5065949;28;20553;-56
2021/04/29 07:54:13;;;;;;;14.25;8.77;;;;;;;19.26;35.98;100061.31;5064167;28;20024;-56
2021/04/29 07:56:38;;;;;;;14.23;8.85;;;;;;;19.31;36.18;100076.19;5065876;28;20099;-56
2021/04/29 07:59:03;;;;;;;12.57;9.60;;;;;;;19.26;36.10;100069.41;5066138;28;20388;-56
2021/04/29 08:01:29;;;;;;;13.27;8.95;;;;;;;19.21;36.41;100067.06;5061448;28;20029;-55
2021/04/29 08:03:54;;;;;;;12.73;7.85;;;;;;;19.19;36.31;100067.16;5061721;28;20024;-57
2021/04/29 08:06:20;;;;;;;16.45;8.25;;;;;;;19.17;38.64;100071.81;5061729;28;20032;-57
2021/04/29 08:08:45;;;;;;;11.80;8.25;;;;;;;19.18;38.62;100073.50;5059590;28;20040;-56
2021/04/29 08:11:15;;;;;;;13.93;7.57;;;;;;;19.19;38.69;100069.88;5063811;28;20035;-57
2021/04/29 08:13:40;;;;;;;12.63;7.57;;;;;;;19.22;37.97;100067.91;5060048;28;20392;-56
2021/04/29 08:16:06;;;;;;;12.73;6.97;;;;;;;19.24;37.80;100084.84;5045083;28;20042;-56
2021/04/29 08:18:31;;;;;;;11.02;7.05;;;;;;;19.22;37.48;100090.31;5060781;28;20028;-55
2021/04/29 08:20:56;;;;;;;9.25;6.55;;;;;;;19.23;38.04;100086.69;5064249;28;20032;-57
2021/04/29 08:23:22;;;;;;;9.65;6.03;;;;;;;19.23;36.64;100091.19;5063288;28;20046;-57
2021/04/29 08:25:47;;;;;;;13.80;7.05;;;;;;;19.28;39.08;100089.03;5066051;28;20028;-55
2021/04/29 08:28:13;;;;;;;11.38;6.15;;;;;;;19.30;37.19;100100.56;5062966;28;20028;-54
2021/04/29 08:30:39;;;;;;;11.85;5.78;;;;;;;19.26;38.40;100097.22;5059074;28;20396;-55
2021/04/29 08:33:04;;;;;;;9.70;6.18;;;;;;;19.27;36.51;100106.19;5062131;28;20025;-56
2021/04/29 08:35:30;;;;;;;9.70;5.88;;;;;;;19.24;36.86;100106.41;5063010;28;20500;-56
2021/04/29 08:37:55;;;;;;;8.98;5.47;;;;;;;19.26;36.87;100099.06;5062340;28;20051;-56
2021/04/29 08:40:21;;;;;;;9.18;5.78;;;;;;;19.30;37.15;100111.34;5044115;28;20591;-56
2021/04/29 08:42:47;;;;;;;8.98;5.15;;;;;;;19.28;37.48;100110.59;5032388;23;20143;-64
2021/04/29 08:45:13;;;;;;;8.13;5.45;;;;;;;19.25;37.63;100094.66;5042039;28;20145;-63
2021/04/29 08:47:38;;;;;;;10.25;5.68;;;;;;;19.30;36.68;100103.25;5050876;28;20094;-64
2021/04/29 08:50:05;;;;;;;8.27;5.60;;;;;;;19.31;36.84;100105.00;5038974;28;20441;-62
2021/04/29 08:52:30;;;;;;;8.90;6.00;;;;;;;19.27;38.47;100106.19;5028818;28;20132;-64
2021/04/29 08:54:56;;;;;;;9.13;6.10;;;;;;;19.28;36.65;100107.91;5012218;28;20084;-64
2021/04/29 08:57:21;;;;;;;11.20;6.20;;;;;;;19.31;36.17;100110.38;5045031;28;20263;-64
2021/04/29 08:59:47;;;;;;;10.35;6.00;;;;;;;19.28;36.40;100119.56;5023627;28;20040;-64
2021/04/29 09:02:12;;;;;;;10.00;5.97;;;;;;;19.32;36.30;100128.28;5041483;28;20078;-64
2021/04/29 09:04:42;;;;;;;8.98;5.85;;;;;;;19.31;36.29;100127.41;5039148;28;20033;-64
2021/04/29 09:07:14;;;;;;;8.05;5.55;;;;;;;19.33;35.81;100120.06;5016785;28;20060;-64
2021/04/29 09:09:43;;;;;;;11.60;5.30;;;;;;;19.30;38.07;100125.69;5037435;28;20031;-64
2021/04/29 09:12:08;;;;;;;9.68;5.47;;;;;;;19.29;37.54;100129.34;5043372;28;20337;-63
2021/04/29 09:14:38;;;;;;;8.38;5.20;;;;;;;19.30;36.13;100135.63;5038261;28;20032;-65
2021/04/29 09:17:03;;;;;;;9.13;4.88;;;;;;;19.35;37.09;100140.69;5018060;28;20016;-63
2021/04/29 09:19:30;;;;;;;7.35;4.63;;;;;;;19.32;37.55;100139.06;5040704;28;20028;-62
2021/04/29 09:21:58;;;;;;;8.68;4.85;;;;;;;19.26;40.60;100139.50;5035123;28;20100;-65
2021/04/29 09:24:30;;;;;;;8.77;4.63;;;;;;;19.28;36.83;100148.34;5048268;28;20025;-63
2021/04/29 09:27:16;;;;;;;8.55;4.93;;;;;;;19.25;39.52;100149.44;5038673;28;20423;-65
2021/04/29 09:29:56;;;;;;;6.82;4.18;;;;;;;19.22;39.95;100157.72;5042341;28;20029;-65
2021/04/29 09:32:29;;;;;;;7.93;4.15;;;;;;;19.25;39.31;100162.06;5041505;28;20504;-65
2021/04/29 09:34:54;;;;;;;7.93;4.40;;;;;;;19.28;38.97;100157.28;5044006;28;20052;-65
2021/04/29 09:37:36;;;;;;;7.35;4.63;;;;;;;19.30;38.63;100158.06;5042201;28;20109;-65
2021/04/29 09:40:04;;;;;;;7.32;4.40;;;;;;;19.37;36.90;100171.94;5040560;28;20029;-64
2021/04/29 09:42:31;;;;;;;8.35;4.40;;;;;;;19.36;36.66;100162.16;5034103;28;20126;-65
2021/04/29 09:44:57;;;;;;;7.20;4.55;;;;;;;19.34;37.69;100161.38;5047711;28;20063;-65
2021/04/29 09:47:22;;;;;;;6.35;3.83;;;;;;;19.31;38.25;100177.81;5024867;28;20025;-64
2021/04/29 09:49:47;;;;;;;7.43;4.40;;;;;;;19.29;36.96;100177.88;5048788;28;20068;-64
2021/04/29 09:52:20;;;;;;;7.82;4.38;;;;;;;19.25;38.46;100183.63;5036731;28;20025;-65
2021/04/29 09:54:45;;;;;;;6.90;4.55;;;;;;;19.22;37.21;100181.16;5036921;28;20426;-63
2021/04/29 09:57:15;;;;;;;8.50;4.55;;;;;;;19.19;40.32;100188.47;5040610;28;20032;-64
2021/04/29 09:59:42;;;;;;;7.75;4.75;;;;;;;19.24;37.43;100190.00;5050995;28;20499;-64
2021/04/29 10:02:09;;;;;;;7.30;4.22;;;;;;;19.24;37.99;100198.09;5051896;28;20162;-64
2021/04/29 10:04:34;;;;;;;6.72;3.95;;;;;;;19.22;37.23;100195.47;5022873;28;20503;-65
2021/04/29 10:07:00;;;;;;;7.18;4.60;;;;;;;19.23;37.31;100210.69;5030271;28;20012;-63
2021/04/29 10:09:32;;;;;;;6.72;3.90;;;;;;;19.23;36.92;100216.09;5024330;28;20526;-65
2021/04/29 10:12:02;;;;;;;6.07;3.72;;;;;;;19.19;37.22;100218.13;5039150;28;20256;-65
2021/04/29 10:14:30;;;;;;;6.07;3.72;;;;;;;19.23;38.38;100223.31;5051422;28;20040;-65
2021/04/29 10:16:55;;;;;;;5.72;3.85;;;;;;;19.22;36.97;100230.53;5014791;28;20029;-66
2021/04/29 10:19:21;;;;;;;6.82;4.20;;;;;;;19.20;37.10;100229.78;5035359;28;20460;-65
2021/04/29 10:21:46;;;;;;;6.45;3.80;;;;;;;19.15;36.93;100234.63;5052021;28;20025;-64
2021/04/29 10:24:14;;;;;;;7.13;3.70;;;;;;;19.14;36.87;100233.78;5043570;28;20044;-63
2021/04/29 10:26:39;;;;;;;6.05;3.33;;;;;;;19.15;36.81;100232.78;5012554;28;20024;-64
2021/04/29 10:29:05;;;;;;;5.40;3.17;;;;;;;19.18;37.05;100237.13;5045867;28;20086;-63
2021/04/29 10:31:35;;;;;;;6.20;3.50;;;;;;;19.16;36.68;100239.06;5032068;28;20472;-64
2021/04/29 10:34:10;;;;;;;5.60;3.65;;;;;;;19.14;36.56;100249.94;5041916;28;20069;-65
2021/04/29 10:36:43;;;;;;;8.77;3.40;;;;;;;19.15;37.07;100246.28;5041528;28;20057;-66
2021/04/29 10:39:09;;;;;;;6.35;3.40;;;;;;;19.16;36.85;100249.84;5037606;28;20060;-66
2021/04/29 10:41:34;;;;;;;11.95;3.60;;;;;;;19.13;37.45;100259.00;5047126;28;20599;-64
2021/04/29 10:44:07;;;;;;;9.30;3.85;;;;;;;19.12;36.86;100257.28;5045446;28;20445;-65
2021/04/29 10:46:33;;;;;;;8.30;3.22;;;;;;;19.13;37.04;100264.38;5044839;28;20064;-64
2021/04/29 10:48:59;;;;;;;8.00;3.30;;;;;;;19.12;36.94;100265.38;5043742;28;20040;-66
2021/04/29 10:51:46;;;;;;;7.25;3.53;;;;;;;19.12;36.92;100268.06;5048339;28;20106;-64
2021/04/29 10:54:15;;;;;;;5.68;3.20;;;;;;;19.12;36.99;100269.84;5043108;28;20384;-66
2021/04/29 10:56:40;;;;;;;8.73;3.20;;;;;;;19.11;36.74;100273.53;5044102;28;20027;-65
2021/04/29 10:59:13;;;;;;;7.00;3.20;;;;;;;19.12;36.74;100278.84;5043879;28;20392;-65
2021/04/29 11:01:44;;;;;;;7.80;3.00;;;;;;;19.10;36.93;100291.53;5043118;28;20531;-66
2021/04/29 11:04:13;;;;;;;5.78;2.92;;;;;;;19.06;36.85;100285.47;5042829;28;20105;-65
2021/04/29 11:06:39;;;;;;;6.63;2.97;;;;;;;19.07;36.95;100297.13;5041750;28;20032;-64
2021/04/29 11:09:17;;;;;;;5.20;2.90;;;;;;;19.06;36.70;100307.06;5026239;28;20013;-65
2021/04/29 11:11:43;;;;;;;4.55;2.70;;;;;;;19.08;37.51;100317.72;5040875;28;20032;-64
2021/04/29 11:14:09;;;;;;;9.68;4.40;;;;;;;18.16;38.80;100329.97;5022936;28;20516;-64
2021/04/29 11:16:50;;;;;;;11.27;5.55;;;;;;;17.32;41.06;100324.38;5025842;28;20063;-64
2021/04/29 11:19:43;;;;;;;8.35;5.38;;;;;;;17.10;40.79;100336.38;5045905;28;20118;-65
2021/04/29 11:22:32;;;;;;;9.18;5.45;;;;;;;16.76;41.53;100345.47;5044103;28;20029;-64
2021/04/29 11:24:57;;;;;;;10.95;5.78;;;;;;;16.65;42.69;100355.97;5046917;28;20497;-63